sensor_id;sensor_type;location;lat;lon;timestamp;temperature;humidity
4308;DHT22;2167;53.448;9.984;2023-04-30T00:00:54;7.80;1.00
4308;DHT22;2167;53.448;9.984;2023-04-30T00:03:20;7.90;1.00
4308;DHT22;2167;53.448;9.984;2023-04-30T00:05:49;7.90;1.00
4308;DHT22;2167;53.448;9.984;2023-04-30T00:08:16;7.90;1.00
4308;DHT22;2167;53.448;9.984;2023-04-30T00:10:41;7.90;1.00
4308;DHT22;2167;53.448;9.984;2023-04-30T00:13:07;7.80;1.00
4308;DHT22;2167;53.448;9.984;2023-04-30T00:15:34;7.80;1.00
4308;DHT22;2167;53.448;9.984;2023-04-30T00:18:01;7.80;1.00
4308;DHT22;2167;53.448;9.984;2023-04-30T00:20:26;7.80;1.00
4308;DHT22;2167;53.448;9.984;2023-04-30T00:22:52;7.70;1.00
4308;DHT22;2167;53.448;9.984;2023-04-30T00:25:17;7.80;1.00
4308;DHT22;2167;53.448;9.984;2023-04-30T00:27:45;7.70;1.00
4308;DHT22;2167;53.448;9.984;2023-04-30T00:30:11;7.80;1.00
4308;DHT22;2167;53.448;9.984;2023-04-30T00:32:36;7.70;1.00
4308;DHT22;2167;53.448;9.984;2023-04-30T00:35:02;7.80;1.00
4308;DHT22;2167;53.448;9.984;2023-04-30T00:37:28;7.70;1.00
4308;DHT22;2167;53.448;9.984;2023-04-30T00:39:53;7.70;1.00
4308;DHT22;2167;53.448;9.984;2023-04-30T00:42:19;7.60;1.00
4308;DHT22;2167;53.448;9.984;2023-04-30T00:44:45;7.60;1.00
4308;DHT22;2167;53.448;9.984;2023-04-30T00:47:10;7.60;1.00
4308;DHT22;2167;53.448;9.984;2023-04-30T00:49:36;7.50;1.00
4308;DHT22;2167;53.448;9.984;2023-04-30T00:52:02;7.50;1.00
4308;DHT22;2167;53.448;9.984;2023-04-30T00:54:27;7.50;1.00
4308;DHT22;2167;53.448;9.984;2023-04-30T00:56:53;7.50;1.00
4308;DHT22;2167;53.448;9.984;2023-04-30T00:59:19;7.50;1.00
4308;DHT22;2167;53.448;9.984;2023-04-30T01:01:45;7.50;1.00
4308;DHT22;2167;53.448;9.984;2023-04-30T01:04:11;7.50;1.00
4308;DHT22;2167;53.448;9.984;2023-04-30T01:06:37;7.50;1.00
4308;DHT22;2167;53.448;9.984;2023-04-30T01:09:03;7.40;1.00
4308;DHT22;2167;53.448;9.984;2023-04-30T01:14:11;7.30;1.00
4308;DHT22;2167;53.448;9.984;2023-04-30T01:16:49;7.30;1.00
4308;DHT22;2167;53.448;9.984;2023-04-30T01:21:50;7.30;1.00
4308;DHT22;2167;53.448;9.984;2023-04-30T01:24:36;7.30;1.20
4308;DHT22;2167;53.448;9.984;2023-04-30T01:29:33;7.20;1.00
4308;DHT22;2167;53.448;9.984;2023-04-30T01:31:59;7.20;1.00
4308;DHT22;2167;53.448;9.984;2023-04-30T01:34:26;7.10;1.30
4308;DHT22;2167;53.448;9.984;2023-04-30T01:39:49;7.10;1.20
4308;DHT22;2167;53.448;9.984;2023-04-30T01:42:28;7.00;1.00
4308;DHT22;2167;53.448;9.984;2023-04-30T01:47:51;6.90;1.20
4308;DHT22;2167;53.448;9.984;2023-04-30T01:50:34;6.90;1.10
4308;DHT22;2167;53.448;9.984;2023-04-30T01:53:05;6.80;1.20
4308;DHT22;2167;53.448;9.984;2023-04-30T01:55:45;6.70;1.50
4308;DHT22;2167;53.448;9.984;2023-04-30T01:58:14;6.70;1.80
4308;DHT22;2167;53.448;9.984;2023-04-30T02:00:40;6.60;2.10
4308;DHT22;2167;53.448;9.984;2023-04-30T02:03:06;6.50;2.90
4308;DHT22;2167;53.448;9.984;2023-04-30T02:05:32;6.40;3.50
4308;DHT22;2167;53.448;9.984;2023-04-30T02:07:58;6.20;4.50
4308;DHT22;2167;53.448;9.984;2023-04-30T02:10:25;6.10;5.60
4308;DHT22;2167;53.448;9.984;2023-04-30T02:12:51;5.90;6.60
4308;DHT22;2167;53.448;9.984;2023-04-30T02:15:18;5.80;7.70
4308;DHT22;2167;53.448;9.984;2023-04-30T02:17:44;5.70;8.30
4308;DHT22;2167;53.448;9.984;2023-04-30T02:20:10;5.60;8.40
4308;DHT22;2167;53.448;9.984;2023-04-30T02:22:36;5.50;9.10
4308;DHT22;2167;53.448;9.984;2023-04-30T02:25:02;5.40;10.10
4308;DHT22;2167;53.448;9.984;2023-04-30T02:27:30;5.20;11.40
4308;DHT22;2167;53.448;9.984;2023-04-30T02:29:57;5.20;12.60
4308;DHT22;2167;53.448;9.984;2023-04-30T02:32:22;5.00;13.60
4308;DHT22;2167;53.448;9.984;2023-04-30T02:34:48;4.90;14.60
4308;DHT22;2167;53.448;9.984;2023-04-30T02:37:14;4.90;15.10
4308;DHT22;2167;53.448;9.984;2023-04-30T02:39:40;4.80;15.60
4308;DHT22;2167;53.448;9.984;2023-04-30T02:42:06;4.70;16.10
4308;DHT22;2167;53.448;9.984;2023-04-30T02:44:32;4.70;16.30
4308;DHT22;2167;53.448;9.984;2023-04-30T02:46:58;4.70;16.40
4308;DHT22;2167;53.448;9.984;2023-04-30T02:49:23;4.60;16.40
4308;DHT22;2167;53.448;9.984;2023-04-30T02:51:49;4.60;16.70
4308;DHT22;2167;53.448;9.984;2023-04-30T02:54:15;4.60;17.00
4308;DHT22;2167;53.448;9.984;2023-04-30T02:56:41;4.50;17.40
4308;DHT22;2167;53.448;9.984;2023-04-30T02:59:08;4.40;17.60
4308;DHT22;2167;53.448;9.984;2023-04-30T03:01:33;4.40;18.10
4308;DHT22;2167;53.448;9.984;2023-04-30T03:03:59;4.40;18.90
4308;DHT22;2167;53.448;9.984;2023-04-30T03:06:25;4.30;19.40
4308;DHT22;2167;53.448;9.984;2023-04-30T03:08:51;4.30;19.50
4308;DHT22;2167;53.448;9.984;2023-04-30T03:11:16;4.20;19.60
4308;DHT22;2167;53.448;9.984;2023-04-30T03:13:42;4.20;20.00
4308;DHT22;2167;53.448;9.984;2023-04-30T03:16:08;4.20;20.60
4308;DHT22;2167;53.448;9.984;2023-04-30T03:18:33;4.10;21.10
4308;DHT22;2167;53.448;9.984;2023-04-30T03:20:59;4.10;21.00
4308;DHT22;2167;53.448;9.984;2023-04-30T03:23:26;4.00;21.10
4308;DHT22;2167;53.448;9.984;2023-04-30T03:25:52;4.00;20.90
4308;DHT22;2167;53.448;9.984;2023-04-30T03:28:17;4.00;20.70
4308;DHT22;2167;53.448;9.984;2023-04-30T03:30:43;3.90;20.60
4308;DHT22;2167;53.448;9.984;2023-04-30T03:33:09;3.90;20.70
4308;DHT22;2167;53.448;9.984;2023-04-30T03:35:35;3.90;21.00
4308;DHT22;2167;53.448;9.984;2023-04-30T03:38:00;3.80;21.20
4308;DHT22;2167;53.448;9.984;2023-04-30T03:40:26;3.70;21.60
4308;DHT22;2167;53.448;9.984;2023-04-30T03:42:52;3.70;21.90
4308;DHT22;2167;53.448;9.984;2023-04-30T03:45:18;3.70;22.30
4308;DHT22;2167;53.448;9.984;2023-04-30T03:47:43;3.60;22.70
4308;DHT22;2167;53.448;9.984;2023-04-30T03:50:10;3.60;23.10
4308;DHT22;2167;53.448;9.984;2023-04-30T03:52:36;3.50;23.60
4308;DHT22;2167;53.448;9.984;2023-04-30T03:55:02;3.50;23.60
4308;DHT22;2167;53.448;9.984;2023-04-30T03:57:28;3.50;23.80
4308;DHT22;2167;53.448;9.984;2023-04-30T03:59:53;3.50;23.90
4308;DHT22;2167;53.448;9.984;2023-04-30T04:02:20;3.50;24.00
4308;DHT22;2167;53.448;9.984;2023-04-30T04:04:46;3.50;24.20
4308;DHT22;2167;53.448;9.984;2023-04-30T04:07:12;3.40;24.10
4308;DHT22;2167;53.448;9.984;2023-04-30T04:09:38;3.40;24.40
4308;DHT22;2167;53.448;9.984;2023-04-30T04:12:04;3.40;24.60
4308;DHT22;2167;53.448;9.984;2023-04-30T04:14:30;3.40;24.90
4308;DHT22;2167;53.448;9.984;2023-04-30T04:16:55;3.40;25.20
4308;DHT22;2167;53.448;9.984;2023-04-30T04:19:25;3.30;25.70
4308;DHT22;2167;53.448;9.984;2023-04-30T04:21:50;3.40;25.80
4308;DHT22;2167;53.448;9.984;2023-04-30T04:24:16;3.40;25.70
4308;DHT22;2167;53.448;9.984;2023-04-30T04:26:42;3.40;25.30
4308;DHT22;2167;53.448;9.984;2023-04-30T04:29:08;3.40;25.50
4308;DHT22;2167;53.448;9.984;2023-04-30T04:31:34;3.50;25.50
4308;DHT22;2167;53.448;9.984;2023-04-30T04:34:02;3.60;25.40
4308;DHT22;2167;53.448;9.984;2023-04-30T04:36:29;3.60;24.50
4308;DHT22;2167;53.448;9.984;2023-04-30T04:38:57;3.60;24.50
4308;DHT22;2167;53.448;9.984;2023-04-30T04:41:30;3.60;24.60
4308;DHT22;2167;53.448;9.984;2023-04-30T04:43:57;3.70;24.80
4308;DHT22;2167;53.448;9.984;2023-04-30T04:46:23;3.70;24.90
4308;DHT22;2167;53.448;9.984;2023-04-30T04:48:49;3.70;25.10
4308;DHT22;2167;53.448;9.984;2023-04-30T04:51:15;3.70;25.40
4308;DHT22;2167;53.448;9.984;2023-04-30T04:53:41;3.70;25.80
4308;DHT22;2167;53.448;9.984;2023-04-30T04:56:07;3.70;26.20
4308;DHT22;2167;53.448;9.984;2023-04-30T04:58:33;3.80;26.40
4308;DHT22;2167;53.448;9.984;2023-04-30T05:00:59;3.80;26.50
4308;DHT22;2167;53.448;9.984;2023-04-30T05:03:28;3.90;26.80
4308;DHT22;2167;53.448;9.984;2023-04-30T05:05:54;3.90;27.00
4308;DHT22;2167;53.448;9.984;2023-04-30T05:08:19;4.00;27.10
4308;DHT22;2167;53.448;9.984;2023-04-30T05:10:45;4.00;27.20
4308;DHT22;2167;53.448;9.984;2023-04-30T05:13:12;4.20;27.40
4308;DHT22;2167;53.448;9.984;2023-04-30T05:15:37;4.30;27.10
4308;DHT22;2167;53.448;9.984;2023-04-30T05:18:03;4.40;26.80
4308;DHT22;2167;53.448;9.984;2023-04-30T05:20:29;4.50;26.90
4308;DHT22;2167;53.448;9.984;2023-04-30T05:22:54;4.70;26.80
4308;DHT22;2167;53.448;9.984;2023-04-30T05:25:20;4.80;26.60
4308;DHT22;2167;53.448;9.984;2023-04-30T05:27:45;4.90;26.40
4308;DHT22;2167;53.448;9.984;2023-04-30T05:30:11;5.00;26.20
4308;DHT22;2167;53.448;9.984;2023-04-30T05:32:37;5.10;26.40
4308;DHT22;2167;53.448;9.984;2023-04-30T05:35:03;5.20;25.80
4308;DHT22;2167;53.448;9.984;2023-04-30T05:37:28;5.30;25.40
4308;DHT22;2167;53.448;9.984;2023-04-30T05:39:54;5.40;25.10
4308;DHT22;2167;53.448;9.984;2023-04-30T05:42:20;5.50;25.20
4308;DHT22;2167;53.448;9.984;2023-04-30T05:44:47;5.60;25.20
4308;DHT22;2167;53.448;9.984;2023-04-30T05:47:12;5.70;25.10
4308;DHT22;2167;53.448;9.984;2023-04-30T05:49:38;5.90;24.40
4308;DHT22;2167;53.448;9.984;2023-04-30T05:52:04;6.00;23.70
4308;DHT22;2167;53.448;9.984;2023-04-30T05:54:30;6.00;23.10
4308;DHT22;2167;53.448;9.984;2023-04-30T05:56:55;6.10;22.40
4308;DHT22;2167;53.448;9.984;2023-04-30T05:59:21;6.30;21.70
4308;DHT22;2167;53.448;9.984;2023-04-30T06:01:47;6.40;20.90
4308;DHT22;2167;53.448;9.984;2023-04-30T06:04:13;6.60;18.90
4308;DHT22;2167;53.448;9.984;2023-04-30T06:06:38;6.70;17.50
4308;DHT22;2167;53.448;9.984;2023-04-30T06:09:04;6.80;16.80
4308;DHT22;2167;53.448;9.984;2023-04-30T06:11:30;6.80;15.20
4308;DHT22;2167;53.448;9.984;2023-04-30T06:13:56;6.90;13.70
4308;DHT22;2167;53.448;9.984;2023-04-30T06:16:22;7.00;12.80
4308;DHT22;2167;53.448;9.984;2023-04-30T06:18:48;7.10;6.40
4308;DHT22;2167;53.448;9.984;2023-04-30T06:21:14;7.20;1.50
4308;DHT22;2167;53.448;9.984;2023-04-30T06:23:40;7.40;1.00
4308;DHT22;2167;53.448;9.984;2023-04-30T06:26:05;7.40;1.00
4308;DHT22;2167;53.448;9.984;2023-04-30T06:28:31;7.50;1.00
4308;DHT22;2167;53.448;9.984;2023-04-30T06:30:56;7.60;1.00
4308;DHT22;2167;53.448;9.984;2023-04-30T06:33:22;7.60;1.00
4308;DHT22;2167;53.448;9.984;2023-04-30T06:35:47;7.70;1.00
4308;DHT22;2167;53.448;9.984;2023-04-30T06:38:15;7.80;1.00
4308;DHT22;2167;53.448;9.984;2023-04-30T06:40:43;7.80;1.00
4308;DHT22;2167;53.448;9.984;2023-04-30T06:43:08;7.90;1.00
4308;DHT22;2167;53.448;9.984;2023-04-30T06:45:34;7.90;1.00
4308;DHT22;2167;53.448;9.984;2023-04-30T06:48:00;8.00;1.00
4308;DHT22;2167;53.448;9.984;2023-04-30T06:50:25;8.10;1.00
4308;DHT22;2167;53.448;9.984;2023-04-30T06:52:51;8.20;1.00
4308;DHT22;2167;53.448;9.984;2023-04-30T06:55:17;8.30;1.00
4308;DHT22;2167;53.448;9.984;2023-04-30T06:57:42;8.30;1.00
4308;DHT22;2167;53.448;9.984;2023-04-30T07:00:08;8.40;1.00
4308;DHT22;2167;53.448;9.984;2023-04-30T07:02:34;8.50;1.00
4308;DHT22;2167;53.448;9.984;2023-04-30T07:05:00;8.60;1.00
4308;DHT22;2167;53.448;9.984;2023-04-30T07:07:26;8.60;1.00
4308;DHT22;2167;53.448;9.984;2023-04-30T07:09:52;8.70;1.00
4308;DHT22;2167;53.448;9.984;2023-04-30T07:12:19;8.80;1.00
4308;DHT22;2167;53.448;9.984;2023-04-30T07:14:44;8.80;1.00
4308;DHT22;2167;53.448;9.984;2023-04-30T07:17:10;8.90;1.00
4308;DHT22;2167;53.448;9.984;2023-04-30T07:19:35;9.00;1.00
4308;DHT22;2167;53.448;9.984;2023-04-30T07:22:01;9.10;1.00
4308;DHT22;2167;53.448;9.984;2023-04-30T07:24:27;9.10;1.00
4308;DHT22;2167;53.448;9.984;2023-04-30T07:26:53;9.20;1.00
4308;DHT22;2167;53.448;9.984;2023-04-30T07:29:18;9.30;1.00
4308;DHT22;2167;53.448;9.984;2023-04-30T07:31:44;9.50;1.00
4308;DHT22;2167;53.448;9.984;2023-04-30T07:34:13;9.60;1.00
4308;DHT22;2167;53.448;9.984;2023-04-30T07:36:38;9.70;1.00
4308;DHT22;2167;53.448;9.984;2023-04-30T07:39:04;9.70;1.00
4308;DHT22;2167;53.448;9.984;2023-04-30T07:41:30;9.70;1.00
4308;DHT22;2167;53.448;9.984;2023-04-30T07:43:56;9.80;1.00
4308;DHT22;2167;53.448;9.984;2023-04-30T07:46:23;9.90;1.00
4308;DHT22;2167;53.448;9.984;2023-04-30T07:48:49;9.90;1.00
4308;DHT22;2167;53.448;9.984;2023-04-30T07:51:15;10.00;1.00
4308;DHT22;2167;53.448;9.984;2023-04-30T07:53:40;10.10;1.00
4308;DHT22;2167;53.448;9.984;2023-04-30T07:56:06;10.20;1.00
4308;DHT22;2167;53.448;9.984;2023-04-30T07:58:32;10.30;1.00
4308;DHT22;2167;53.448;9.984;2023-04-30T08:00:58;10.50;1.00
4308;DHT22;2167;53.448;9.984;2023-04-30T08:03:23;10.60;1.00
4308;DHT22;2167;53.448;9.984;2023-04-30T08:05:49;10.50;1.00
4308;DHT22;2167;53.448;9.984;2023-04-30T08:08:15;10.50;1.00
4308;DHT22;2167;53.448;9.984;2023-04-30T08:10:40;10.60;1.00
4308;DHT22;2167;53.448;9.984;2023-04-30T08:13:06;10.80;1.00
4308;DHT22;2167;53.448;9.984;2023-04-30T08:15:35;10.90;1.00
4308;DHT22;2167;53.448;9.984;2023-04-30T08:18:01;10.90;1.00
4308;DHT22;2167;53.448;9.984;2023-04-30T08:20:27;11.00;1.00
4308;DHT22;2167;53.448;9.984;2023-04-30T08:22:52;11.10;1.00
4308;DHT22;2167;53.448;9.984;2023-04-30T08:25:18;11.10;1.00
4308;DHT22;2167;53.448;9.984;2023-04-30T08:27:44;11.10;1.00
4308;DHT22;2167;53.448;9.984;2023-04-30T08:30:10;11.40;1.00
4308;DHT22;2167;53.448;9.984;2023-04-30T08:32:36;11.80;1.00
4308;DHT22;2167;53.448;9.984;2023-04-30T08:35:03;12.00;1.00
4308;DHT22;2167;53.448;9.984;2023-04-30T08:37:29;12.20;1.00
4308;DHT22;2167;53.448;9.984;2023-04-30T08:39:55;12.40;1.00
4308;DHT22;2167;53.448;9.984;2023-04-30T08:42:24;12.60;1.00
4308;DHT22;2167;53.448;9.984;2023-04-30T08:44:50;12.70;1.00
4308;DHT22;2167;53.448;9.984;2023-04-30T08:47:16;12.60;1.00
4308;DHT22;2167;53.448;9.984;2023-04-30T08:49:42;12.60;1.00
4308;DHT22;2167;53.448;9.984;2023-04-30T08:52:08;12.80;1.00
4308;DHT22;2167;53.448;9.984;2023-04-30T08:54:35;13.10;1.00
4308;DHT22;2167;53.448;9.984;2023-04-30T08:57:00;13.30;1.00
4308;DHT22;2167;53.448;9.984;2023-04-30T08:59:27;13.60;1.00
4308;DHT22;2167;53.448;9.984;2023-04-30T09:01:52;13.80;1.00
4308;DHT22;2167;53.448;9.984;2023-04-30T09:04:18;13.90;1.00
4308;DHT22;2167;53.448;9.984;2023-04-30T09:06:43;14.00;1.00
4308;DHT22;2167;53.448;9.984;2023-04-30T09:09:14;14.00;1.00
4308;DHT22;2167;53.448;9.984;2023-04-30T09:11:40;14.10;1.00
4308;DHT22;2167;53.448;9.984;2023-04-30T09:14:07;14.30;1.00
4308;DHT22;2167;53.448;9.984;2023-04-30T09:16:48;14.40;1.00
4308;DHT22;2167;53.448;9.984;2023-04-30T09:19:29;14.30;1.00
4308;DHT22;2167;53.448;9.984;2023-04-30T09:21:55;14.20;1.00
4308;DHT22;2167;53.448;9.984;2023-04-30T09:24:22;14.30;1.00
4308;DHT22;2167;53.448;9.984;2023-04-30T09:26:48;14.30;1.00
4308;DHT22;2167;53.448;9.984;2023-04-30T09:29:15;14.40;1.00
4308;DHT22;2167;53.448;9.984;2023-04-30T09:31:46;14.30;1.00
4308;DHT22;2167;53.448;9.984;2023-04-30T09:34:12;14.20;1.00
4308;DHT22;2167;53.448;9.984;2023-04-30T09:36:58;14.00;1.00
4308;DHT22;2167;53.448;9.984;2023-04-30T09:39:24;13.70;1.00
4308;DHT22;2167;53.448;9.984;2023-04-30T09:41:50;13.60;1.00
4308;DHT22;2167;53.448;9.984;2023-04-30T09:44:28;13.80;1.00
4308;DHT22;2167;53.448;9.984;2023-04-30T09:46:55;13.90;1.00
4308;DHT22;2167;53.448;9.984;2023-04-30T09:49:22;14.20;1.00
4308;DHT22;2167;53.448;9.984;2023-04-30T09:51:58;14.40;1.00
4308;DHT22;2167;53.448;9.984;2023-04-30T09:54:31;14.60;1.00
4308;DHT22;2167;53.448;9.984;2023-04-30T09:56:58;14.70;1.00
4308;DHT22;2167;53.448;9.984;2023-04-30T09:59:32;15.00;1.00
4308;DHT22;2167;53.448;9.984;2023-04-30T10:02:01;15.30;1.00
4308;DHT22;2167;53.448;9.984;2023-04-30T10:04:37;15.50;1.00
4308;DHT22;2167;53.448;9.984;2023-04-30T10:07:24;15.40;1.00
4308;DHT22;2167;53.448;9.984;2023-04-30T10:10:02;15.40;1.00
4308;DHT22;2167;53.448;9.984;2023-04-30T10:12:42;15.40;1.00
4308;DHT22;2167;53.448;9.984;2023-04-30T10:15:19;15.50;1.00
4308;DHT22;2167;53.448;9.984;2023-04-30T10:17:53;15.50;1.00
4308;DHT22;2167;53.448;9.984;2023-04-30T10:20:21;15.70;1.00
4308;DHT22;2167;53.448;9.984;2023-04-30T10:22:48;15.90;1.00
4308;DHT22;2167;53.448;9.984;2023-04-30T10:25:14;15.90;1.00
4308;DHT22;2167;53.448;9.984;2023-04-30T10:27:41;16.00;1.00
4308;DHT22;2167;53.448;9.984;2023-04-30T10:30:12;16.00;1.00
4308;DHT22;2167;53.448;9.984;2023-04-30T10:32:50;16.10;1.00
4308;DHT22;2167;53.448;9.984;2023-04-30T10:35:25;16.10;1.00
4308;DHT22;2167;53.448;9.984;2023-04-30T10:38:02;16.10;1.00
4308;DHT22;2167;53.448;9.984;2023-04-30T10:40:36;16.10;1.00
4308;DHT22;2167;53.448;9.984;2023-04-30T10:43:02;16.10;1.00
4308;DHT22;2167;53.448;9.984;2023-04-30T10:45:38;16.30;1.00
4308;DHT22;2167;53.448;9.984;2023-04-30T10:48:06;16.30;1.00
4308;DHT22;2167;53.448;9.984;2023-04-30T10:50:31;16.40;1.00
4308;DHT22;2167;53.448;9.984;2023-04-30T10:53:04;16.50;1.00
4308;DHT22;2167;53.448;9.984;2023-04-30T10:55:30;16.50;1.00
4308;DHT22;2167;53.448;9.984;2023-04-30T10:57:59;16.60;1.00
4308;DHT22;2167;53.448;9.984;2023-04-30T11:00:26;16.80;1.00
4308;DHT22;2167;53.448;9.984;2023-04-30T11:03:02;16.90;1.00
4308;DHT22;2167;53.448;9.984;2023-04-30T11:05:35;17.20;1.00
4308;DHT22;2167;53.448;9.984;2023-04-30T11:08:02;17.20;1.00
4308;DHT22;2167;53.448;9.984;2023-04-30T11:10:32;17.20;1.00
4308;DHT22;2167;53.448;9.984;2023-04-30T11:13:05;17.50;1.00
4308;DHT22;2167;53.448;9.984;2023-04-30T11:15:34;17.60;1.00
4308;DHT22;2167;53.448;9.984;2023-04-30T11:18:03;17.70;1.00
4308;DHT22;2167;53.448;9.984;2023-04-30T11:20:29;17.90;1.00
4308;DHT22;2167;53.448;9.984;2023-04-30T11:23:14;18.00;1.00
4308;DHT22;2167;53.448;9.984;2023-04-30T11:25:45;17.90;1.00
4308;DHT22;2167;53.448;9.984;2023-04-30T11:28:17;17.60;1.00
4308;DHT22;2167;53.448;9.984;2023-04-30T11:30:54;17.50;1.00
4308;DHT22;2167;53.448;9.984;2023-04-30T11:33:21;17.50;1.00
4308;DHT22;2167;53.448;9.984;2023-04-30T11:35:48;17.40;1.00
4308;DHT22;2167;53.448;9.984;2023-04-30T11:38:25;17.40;1.00
4308;DHT22;2167;53.448;9.984;2023-04-30T11:40:51;17.40;1.00
4308;DHT22;2167;53.448;9.984;2023-04-30T11:43:26;17.30;1.00
4308;DHT22;2167;53.448;9.984;2023-04-30T11:46:12;17.30;1.00
4308;DHT22;2167;53.448;9.984;2023-04-30T11:48:40;17.20;1.00
4308;DHT22;2167;53.448;9.984;2023-04-30T11:51:19;17.00;1.00
4308;DHT22;2167;53.448;9.984;2023-04-30T11:53:47;17.00;1.00
4308;DHT22;2167;53.448;9.984;2023-04-30T11:56:16;17.00;1.00
4308;DHT22;2167;53.448;9.984;2023-04-30T11:58:42;17.00;1.00
4308;DHT22;2167;53.448;9.984;2023-04-30T12:01:10;16.90;1.00
4308;DHT22;2167;53.448;9.984;2023-04-30T12:03:43;17.00;1.00
4308;DHT22;2167;53.448;9.984;2023-04-30T12:06:10;17.40;1.00
4308;DHT22;2167;53.448;9.984;2023-04-30T12:08:40;17.80;1.00
4308;DHT22;2167;53.448;9.984;2023-04-30T12:11:21;18.00;1.00
4308;DHT22;2167;53.448;9.984;2023-04-30T12:13:53;18.10;1.00
4308;DHT22;2167;53.448;9.984;2023-04-30T12:16:19;17.90;1.00
4308;DHT22;2167;53.448;9.984;2023-04-30T12:18:46;17.50;1.00
4308;DHT22;2167;53.448;9.984;2023-04-30T12:21:12;17.40;1.00
4308;DHT22;2167;53.448;9.984;2023-04-30T12:23:38;17.50;1.00
4308;DHT22;2167;53.448;9.984;2023-04-30T12:26:04;17.70;1.00
4308;DHT22;2167;53.448;9.984;2023-04-30T12:28:29;17.90;1.00
4308;DHT22;2167;53.448;9.984;2023-04-30T12:30:55;18.00;1.00
4308;DHT22;2167;53.448;9.984;2023-04-30T12:33:21;18.30;1.00
4308;DHT22;2167;53.448;9.984;2023-04-30T12:35:47;18.50;1.00
4308;DHT22;2167;53.448;9.984;2023-04-30T12:38:15;18.50;1.00
4308;DHT22;2167;53.448;9.984;2023-04-30T12:40:46;18.20;1.00
4308;DHT22;2167;53.448;9.984;2023-04-30T12:43:15;18.10;1.00
4308;DHT22;2167;53.448;9.984;2023-04-30T12:45:48;18.20;1.00
4308;DHT22;2167;53.448;9.984;2023-04-30T12:48:17;18.30;1.00
4308;DHT22;2167;53.448;9.984;2023-04-30T12:50:47;18.20;1.00
4308;DHT22;2167;53.448;9.984;2023-04-30T12:53:13;18.00;1.00
4308;DHT22;2167;53.448;9.984;2023-04-30T12:55:40;18.10;1.00
4308;DHT22;2167;53.448;9.984;2023-04-30T12:58:12;18.20;1.00
4308;DHT22;2167;53.448;9.984;2023-04-30T13:00:50;18.30;1.00
4308;DHT22;2167;53.448;9.984;2023-04-30T13:03:20;18.00;1.00
4308;DHT22;2167;53.448;9.984;2023-04-30T13:05:47;18.10;1.00
4308;DHT22;2167;53.448;9.984;2023-04-30T13:08:14;17.90;1.00
4308;DHT22;2167;53.448;9.984;2023-04-30T13:10:40;17.70;1.00
4308;DHT22;2167;53.448;9.984;2023-04-30T13:13:05;17.60;1.00
4308;DHT22;2167;53.448;9.984;2023-04-30T13:15:34;17.80;1.00
4308;DHT22;2167;53.448;9.984;2023-04-30T13:18:00;17.90;1.00
4308;DHT22;2167;53.448;9.984;2023-04-30T13:20:26;18.20;1.00
4308;DHT22;2167;53.448;9.984;2023-04-30T13:22:51;18.50;1.00
4308;DHT22;2167;53.448;9.984;2023-04-30T13:25:18;18.80;1.00
4308;DHT22;2167;53.448;9.984;2023-04-30T13:27:44;18.50;1.00
4308;DHT22;2167;53.448;9.984;2023-04-30T13:30:10;18.30;1.00
4308;DHT22;2167;53.448;9.984;2023-04-30T13:32:36;18.10;1.00
4308;DHT22;2167;53.448;9.984;2023-04-30T13:35:02;18.00;1.00
4308;DHT22;2167;53.448;9.984;2023-04-30T13:37:28;18.10;1.00
4308;DHT22;2167;53.448;9.984;2023-04-30T13:39:57;18.30;1.00
4308;DHT22;2167;53.448;9.984;2023-04-30T13:42:24;18.30;1.00
4308;DHT22;2167;53.448;9.984;2023-04-30T13:44:51;18.30;1.00
4308;DHT22;2167;53.448;9.984;2023-04-30T13:47:17;18.60;1.00
4308;DHT22;2167;53.448;9.984;2023-04-30T13:49:42;18.60;1.00
4308;DHT22;2167;53.448;9.984;2023-04-30T13:52:08;18.60;1.00
4308;DHT22;2167;53.448;9.984;2023-04-30T13:54:34;18.40;1.00
4308;DHT22;2167;53.448;9.984;2023-04-30T13:56:59;18.40;1.00
4308;DHT22;2167;53.448;9.984;2023-04-30T13:59:25;18.60;1.00
4308;DHT22;2167;53.448;9.984;2023-04-30T14:01:50;18.80;1.00
4308;DHT22;2167;53.448;9.984;2023-04-30T14:04:16;18.90;1.00
4308;DHT22;2167;53.448;9.984;2023-04-30T14:06:43;18.90;1.00
4308;DHT22;2167;53.448;9.984;2023-04-30T14:09:08;19.00;1.00
4308;DHT22;2167;53.448;9.984;2023-04-30T14:11:34;19.10;1.00
4308;DHT22;2167;53.448;9.984;2023-04-30T14:13:59;19.00;1.00
4308;DHT22;2167;53.448;9.984;2023-04-30T14:16:25;19.00;1.00
4308;DHT22;2167;53.448;9.984;2023-04-30T14:18:51;19.20;1.00
4308;DHT22;2167;53.448;9.984;2023-04-30T14:21:17;19.30;1.00
4308;DHT22;2167;53.448;9.984;2023-04-30T14:23:42;19.40;1.00
4308;DHT22;2167;53.448;9.984;2023-04-30T14:26:11;19.30;1.00
4308;DHT22;2167;53.448;9.984;2023-04-30T14:28:36;19.10;1.00
4308;DHT22;2167;53.448;9.984;2023-04-30T14:31:05;19.20;1.00
4308;DHT22;2167;53.448;9.984;2023-04-30T14:33:32;19.30;1.00
4308;DHT22;2167;53.448;9.984;2023-04-30T14:36:00;19.60;1.00
4308;DHT22;2167;53.448;9.984;2023-04-30T14:38:26;19.70;1.00
4308;DHT22;2167;53.448;9.984;2023-04-30T14:40:52;20.00;1.00
4308;DHT22;2167;53.448;9.984;2023-04-30T14:43:18;20.00;1.00
4308;DHT22;2167;53.448;9.984;2023-04-30T14:45:44;20.00;1.00
4308;DHT22;2167;53.448;9.984;2023-04-30T14:48:13;19.90;1.00
4308;DHT22;2167;53.448;9.984;2023-04-30T14:50:38;20.10;1.00
4308;DHT22;2167;53.448;9.984;2023-04-30T14:53:04;20.30;1.00
4308;DHT22;2167;53.448;9.984;2023-04-30T14:55:30;20.10;1.00
4308;DHT22;2167;53.448;9.984;2023-04-30T14:57:57;19.90;1.00
4308;DHT22;2167;53.448;9.984;2023-04-30T15:00:23;19.70;1.00
4308;DHT22;2167;53.448;9.984;2023-04-30T15:02:49;19.60;1.00
4308;DHT22;2167;53.448;9.984;2023-04-30T15:05:15;19.60;1.00
4308;DHT22;2167;53.448;9.984;2023-04-30T15:07:40;19.60;1.00
4308;DHT22;2167;53.448;9.984;2023-04-30T15:10:06;19.70;1.00
4308;DHT22;2167;53.448;9.984;2023-04-30T15:12:32;19.80;1.00
4308;DHT22;2167;53.448;9.984;2023-04-30T15:15:00;19.70;1.00
4308;DHT22;2167;53.448;9.984;2023-04-30T15:17:26;19.70;1.00
4308;DHT22;2167;53.448;9.984;2023-04-30T15:19:52;19.90;1.00
4308;DHT22;2167;53.448;9.984;2023-04-30T15:22:19;19.70;1.00
4308;DHT22;2167;53.448;9.984;2023-04-30T15:24:45;19.50;1.00
4308;DHT22;2167;53.448;9.984;2023-04-30T15:27:11;19.20;1.00
4308;DHT22;2167;53.448;9.984;2023-04-30T15:29:37;19.10;1.00
4308;DHT22;2167;53.448;9.984;2023-04-30T15:32:04;19.10;1.00
4308;DHT22;2167;53.448;9.984;2023-04-30T15:34:30;19.30;1.00
4308;DHT22;2167;53.448;9.984;2023-04-30T15:36:56;19.40;1.00
4308;DHT22;2167;53.448;9.984;2023-04-30T15:39:23;19.40;1.00
4308;DHT22;2167;53.448;9.984;2023-04-30T15:41:49;19.50;1.00
4308;DHT22;2167;53.448;9.984;2023-04-30T15:44:15;19.50;1.00
4308;DHT22;2167;53.448;9.984;2023-04-30T15:46:40;19.30;1.00
4308;DHT22;2167;53.448;9.984;2023-04-30T15:49:06;19.10;1.00
4308;DHT22;2167;53.448;9.984;2023-04-30T15:51:31;18.80;1.00
4308;DHT22;2167;53.448;9.984;2023-04-30T15:53:58;18.60;1.00
4308;DHT22;2167;53.448;9.984;2023-04-30T15:56:24;18.40;1.00
4308;DHT22;2167;53.448;9.984;2023-04-30T15:58:52;18.40;1.00
4308;DHT22;2167;53.448;9.984;2023-04-30T16:01:18;18.20;1.00
4308;DHT22;2167;53.448;9.984;2023-04-30T16:03:44;18.20;1.00
4308;DHT22;2167;53.448;9.984;2023-04-30T16:06:10;18.10;1.00
4308;DHT22;2167;53.448;9.984;2023-04-30T16:08:35;18.20;1.00
4308;DHT22;2167;53.448;9.984;2023-04-30T16:11:01;18.20;1.00
4308;DHT22;2167;53.448;9.984;2023-04-30T16:13:28;18.30;1.00
4308;DHT22;2167;53.448;9.984;2023-04-30T16:15:53;18.40;1.00
4308;DHT22;2167;53.448;9.984;2023-04-30T16:18:20;18.70;1.00
4308;DHT22;2167;53.448;9.984;2023-04-30T16:20:46;18.80;1.00
4308;DHT22;2167;53.448;9.984;2023-04-30T16:23:13;19.00;1.00
4308;DHT22;2167;53.448;9.984;2023-04-30T16:25:39;19.00;1.00
4308;DHT22;2167;53.448;9.984;2023-04-30T16:28:05;19.00;1.00
4308;DHT22;2167;53.448;9.984;2023-04-30T16:30:32;18.90;1.00
4308;DHT22;2167;53.448;9.984;2023-04-30T16:32:58;18.90;1.00
4308;DHT22;2167;53.448;9.984;2023-04-30T16:35:23;18.90;1.00